createdAt,value
2023-03-08T00:38:29.122Z,21.2
2023-03-08T00:39:33.249Z,21.16
2023-03-08T00:40:37.390Z,21.2
2023-03-08T00:41:41.493Z,21.2
2023-03-08T00:42:45.628Z,21.2
2023-03-08T00:43:50.013Z,21.19
2023-03-08T00:44:54.174Z,21.19
2023-03-08T00:45:58.284Z,21.18
2023-03-08T00:47:02.398Z,21.19
2023-03-08T00:48:06.628Z,21.17
2023-03-08T00:49:10.744Z,21.17
2023-03-08T00:50:14.834Z,21.17
2023-03-08T00:51:18.936Z,21.18
2023-03-08T00:52:23.056Z,21.16
2023-03-08T00:53:27.176Z,21.17
2023-03-08T00:54:31.332Z,21.12
2023-03-08T00:55:35.554Z,21.16
2023-03-08T00:56:39.660Z,21.16
2023-03-08T00:57:43.782Z,21.16
2023-03-08T00:58:47.887Z,21.16
2023-03-08T00:59:52.012Z,21.15
2023-03-08T01:00:56.160Z,21.15
2023-03-08T01:02:00.380Z,21.13
2023-03-08T01:03:04.537Z,21.14
2023-03-08T01:04:08.687Z,21.1
2023-03-08T01:05:12.967Z,21.09
2023-03-08T01:06:17.104Z,21.09
2023-03-08T01:07:21.296Z,21.13
2023-03-08T01:08:25.428Z,21.12
2023-03-08T01:09:29.532Z,21.11
2023-03-08T01:10:33.629Z,21.11
2023-03-08T01:11:37.735Z,21.12
2023-03-08T01:12:41.831Z,21.12
2023-03-08T01:13:45.943Z,21.12
2023-03-08T01:14:50.038Z,21.11
2023-03-08T01:15:54.152Z,21.11
2023-03-08T01:16:58.257Z,21.11
2023-03-08T01:18:02.393Z,21.06
2023-03-08T01:19:06.647Z,21.09
2023-03-08T01:20:10.750Z,21.1
2023-03-08T01:21:14.846Z,21.09
2023-03-08T01:22:18.991Z,21.09
2023-03-08T01:23:23.081Z,21.08
2023-03-08T01:24:27.227Z,21.04
2023-03-08T01:25:31.306Z,21.03
2023-03-08T01:26:35.400Z,21.03
2023-03-08T01:27:39.496Z,21.07
2023-03-08T01:28:43.779Z,21.06
2023-03-08T01:29:47.928Z,21.06
2023-03-08T01:30:52.043Z,21.06
2023-03-08T01:31:56.153Z,21.06
2023-03-08T01:33:00.268Z,21.06
2023-03-08T01:34:04.358Z,21
2023-03-08T01:35:08.496Z,21
2023-03-08T01:36:12.601Z,21.03
2023-03-08T01:37:16.700Z,21.03
2023-03-08T01:38:20.810Z,21.03
2023-03-08T01:39:24.916Z,21.02
2023-03-08T01:40:29.051Z,21.02
2023-03-08T01:41:33.152Z,21.01
2023-03-08T01:42:37.269Z,21.02
2023-03-08T01:43:41.369Z,20.97
2023-03-08T01:44:45.532Z,21.01
2023-03-08T01:45:49.670Z,21
2023-03-08T01:46:53.817Z,21
2023-03-08T01:47:57.913Z,21
2023-03-08T01:49:02.037Z,21
2023-03-08T01:50:06.141Z,21
2023-03-08T01:51:10.268Z,20.99
2023-03-08T01:52:14.391Z,20.98
2023-03-08T01:53:18.487Z,20.97
2023-03-08T01:54:22.605Z,20.97
2023-03-08T01:55:26.688Z,20.97
2023-03-08T01:56:30.781Z,20.97
2023-03-08T01:57:34.889Z,20.92
2023-03-08T01:58:38.992Z,20.91
2023-03-08T01:59:43.099Z,20.92
2023-03-08T02:00:47.236Z,20.91
2023-03-08T02:01:51.461Z,20.94
2023-03-08T02:02:55.573Z,20.95
2023-03-08T02:03:59.686Z,20.94
2023-03-08T02:05:03.857Z,20.89
2023-03-08T02:06:07.946Z,20.89
2023-03-08T02:07:12.113Z,20.93
2023-03-08T02:08:16.227Z,20.93
2023-03-08T02:09:20.362Z,20.93
2023-03-08T02:10:24.504Z,20.92
2023-03-08T02:11:28.639Z,20.88
2023-03-08T02:12:32.758Z,20.92
2023-03-08T02:13:36.869Z,20.87
2023-03-08T02:14:40.980Z,20.87
2023-03-08T02:15:45.084Z,20.86
2023-03-08T02:16:49.194Z,20.86
2023-03-08T02:17:53.320Z,20.85
2023-03-08T02:18:57.438Z,20.89
2023-03-08T02:20:01.547Z,20.87
2023-03-08T02:21:05.659Z,20.87
2023-03-08T02:22:09.759Z,20.88
2023-03-08T02:23:13.924Z,20.84
2023-03-08T02:24:18.108Z,20.88
2023-03-08T02:25:22.308Z,20.83
2023-03-08T02:26:26.442Z,20.83
2023-03-08T02:27:30.618Z,20.85
2023-03-08T02:28:34.729Z,20.87
2023-03-08T02:29:38.838Z,20.87
2023-03-08T02:30:42.978Z,20.83
2023-03-08T02:31:47.090Z,20.85
2023-03-08T02:32:51.320Z,20.86
2023-03-08T02:33:55.420Z,20.8
2023-03-08T02:34:59.519Z,20.84
2023-03-08T02:36:03.748Z,20.84
2023-03-08T02:37:08.072Z,20.84
2023-03-08T02:38:12.204Z,20.83
2023-03-08T02:39:16.301Z,20.79
2023-03-08T02:40:20.416Z,20.79
2023-03-08T02:41:24.519Z,20.82
2023-03-08T02:42:28.621Z,20.82
2023-03-08T02:43:32.727Z,20.82
2023-03-08T02:44:37.066Z,20.8
2023-03-08T02:45:41.165Z,20.81
2023-03-08T02:46:45.301Z,20.81
2023-03-08T02:47:49.419Z,20.76
2023-03-08T02:48:53.571Z,20.75
2023-03-08T02:49:57.708Z,20.79
2023-03-08T02:51:01.816Z,20.79
2023-03-08T02:52:05.892Z,20.79
2023-03-08T02:53:09.972Z,20.78
2023-03-08T02:54:16.557Z,20.78
2023-03-08T02:55:21.094Z,20.78
2023-03-08T02:56:25.249Z,20.77
2023-03-08T02:57:29.320Z,20.77
2023-03-08T02:58:33.438Z,20.76
2023-03-08T02:59:37.553Z,20.71
2023-03-08T03:00:41.659Z,20.77
2023-03-08T03:01:45.775Z,20.78
2023-03-08T03:02:49.879Z,20.77
2023-03-08T03:03:53.995Z,20.72
2023-03-08T03:04:58.125Z,20.77
2023-03-08T03:06:02.283Z,20.77
2023-03-08T03:07:06.558Z,20.77
2023-03-08T03:08:10.696Z,20.72
2023-03-08T03:09:14.797Z,20.77
2023-03-08T03:10:18.923Z,20.76
2023-03-08T03:11:23.130Z,20.76
2023-03-08T03:12:27.240Z,20.76
2023-03-08T03:13:31.330Z,20.75
2023-03-08T03:14:35.416Z,20.75
2023-03-08T03:15:39.621Z,20.76
2023-03-08T03:16:43.914Z,20.77
2023-03-08T03:17:48.021Z,20.77
2023-03-08T03:18:52.119Z,20.77
2023-03-08T03:19:56.241Z,20.75
2023-03-08T03:21:00.396Z,20.72
2023-03-08T03:22:04.500Z,20.71
2023-03-08T03:23:08.621Z,20.72
2023-03-08T03:24:12.737Z,20.72
2023-03-08T03:25:16.865Z,20.68
2023-03-08T03:26:21.003Z,20.72
2023-03-08T03:27:25.115Z,20.72
2023-03-08T03:28:29.210Z,20.72
2023-03-08T03:29:33.284Z,20.67
2023-03-08T03:30:37.362Z,20.67
2023-03-08T03:31:41.465Z,20.7
2023-03-08T03:32:45.634Z,20.7
2023-03-08T03:33:49.818Z,20.69
2023-03-08T03:34:53.926Z,20.64
2023-03-08T03:35:58.054Z,20.69
2023-03-08T03:37:02.359Z,20.69
2023-03-08T03:38:06.492Z,20.69
2023-03-08T03:39:10.584Z,20.68
2023-03-08T03:40:14.706Z,20.7
2023-03-08T03:41:18.807Z,20.72
2023-03-08T03:42:22.898Z,20.74
2023-03-08T03:43:27.006Z,20.78
2023-03-08T03:44:31.106Z,20.76
2023-03-08T03:45:35.229Z,20.84
2023-03-08T03:46:39.559Z,20.87
2023-03-08T03:47:43.960Z,20.86
2023-03-08T03:48:48.094Z,20.89
2023-03-08T03:49:52.199Z,20.95
2023-03-08T03:50:56.325Z,20.96
2023-03-08T03:52:00.442Z,20.92
2023-03-08T03:53:04.593Z,20.97
2023-03-08T03:54:08.710Z,20.98
2023-03-08T03:55:12.800Z,20.95
2023-03-08T03:56:16.901Z,20.97
2023-03-08T03:57:21.004Z,20.98
2023-03-08T03:58:25.225Z,21
2023-03-08T03:59:29.325Z,21.01
2023-03-08T04:00:33.426Z,21.02
2023-03-08T04:01:37.526Z,21.03
2023-03-08T04:02:41.662Z,21.04
2023-03-08T04:03:46.032Z,21.06
2023-03-08T04:04:50.213Z,21.12
2023-03-08T04:05:54.342Z,21.14
2023-03-08T04:06:58.442Z,21.14
2023-03-08T04:08:02.568Z,21.16
2023-03-08T04:09:06.715Z,21.17
2023-03-08T04:10:10.857Z,21.2
2023-03-08T04:11:15.077Z,21.19
2023-03-08T04:12:19.324Z,21.24
2023-03-08T04:13:23.438Z,21.25
2023-03-08T04:14:27.531Z,21.27
2023-03-08T04:15:31.635Z,21.29
2023-03-08T04:16:35.734Z,21.3
2023-03-08T04:17:39.856Z,21.31
2023-03-08T04:18:43.947Z,21.33
2023-03-08T04:19:48.116Z,21.36
2023-03-08T04:20:52.220Z,21.33
2023-03-08T04:21:56.336Z,21.34
2023-03-08T04:23:00.452Z,21.39
2023-03-08T04:24:04.550Z,21.42
2023-03-08T04:25:08.702Z,21.42
2023-03-08T04:26:12.810Z,21.39
2023-03-08T04:27:16.917Z,21.42
2023-03-08T04:28:21.019Z,21.42
2023-03-08T04:29:25.141Z,21.38
2023-03-08T04:30:29.332Z,21.38
2023-03-08T04:31:33.453Z,21.37
2023-03-08T04:32:37.914Z,21.36
2023-03-08T04:33:42.343Z,21.4
2023-03-08T04:34:46.444Z,21.41
2023-03-08T04:35:51.626Z,21.38
2023-03-08T04:36:55.920Z,21.42
2023-03-08T04:38:00.073Z,21.41
2023-03-08T04:39:04.192Z,21.42
2023-03-08T04:40:08.314Z,21.37
2023-03-08T04:41:12.538Z,21.36
2023-03-08T04:42:16.650Z,21.42
2023-03-08T04:43:20.769Z,21.44
2023-03-08T04:44:24.867Z,21.46
2023-03-08T04:45:28.988Z,21.47
2023-03-08T04:46:33.170Z,21.49
2023-03-08T04:47:37.437Z,21.54
2023-03-08T04:48:41.579Z,21.54
2023-03-08T04:49:45.694Z,21.57
2023-03-08T04:50:49.792Z,21.61
2023-03-08T04:51:54.018Z,21.61
2023-03-08T04:52:58.475Z,21.63
2023-03-08T04:54:02.581Z,21.6
2023-03-08T04:55:06.714Z,21.65
2023-03-08T04:56:10.839Z,21.59
2023-03-08T04:57:14.953Z,21.63
2023-03-08T04:58:19.053Z,21.65
2023-03-08T04:59:23.204Z,21.59
2023-03-08T05:00:27.362Z,21.61
2023-03-08T05:01:31.480Z,21.61
2023-03-08T05:02:35.712Z,21.55
2023-03-08T05:03:40.221Z,21.6
2023-03-08T05:04:44.359Z,21.53
2023-03-08T05:05:48.710Z,21.57
2023-03-08T05:06:52.813Z,21.49
2023-03-08T05:07:56.927Z,21.53
2023-03-08T05:09:01.033Z,21.49
2023-03-08T05:10:05.182Z,21.52
2023-03-08T05:11:09.286Z,21.52
2023-03-08T05:12:13.390Z,21.52
2023-03-08T05:13:17.531Z,21.53
2023-03-08T05:14:21.667Z,21.53
2023-03-08T05:15:25.785Z,21.55
2023-03-08T05:16:30.107Z,21.54
2023-03-08T05:17:34.642Z,21.61
2023-03-08T05:18:38.742Z,21.63
2023-03-08T05:19:42.886Z,21.67
2023-03-08T05:20:47.028Z,21.69
2023-03-08T05:21:51.135Z,21.71
2023-03-08T05:22:58.803Z,21.71
2023-03-08T05:24:03.402Z,21.68
2023-03-08T05:25:07.517Z,21.7
2023-03-08T05:26:11.643Z,21.73
2023-03-08T05:27:15.751Z,21.72
2023-03-08T05:28:19.858Z,21.71
2023-03-08T05:29:23.986Z,21.73
2023-03-08T05:30:28.080Z,21.73
2023-03-08T05:31:32.229Z,21.67
2023-03-08T05:32:36.597Z,21.7
2023-03-08T05:33:40.925Z,21.64
2023-03-08T05:34:45.070Z,21.63
2023-03-08T05:35:49.162Z,21.66
2023-03-08T05:36:53.463Z,21.67
2023-03-08T05:37:57.583Z,21.61
2023-03-08T05:39:01.713Z,21.63
2023-03-08T05:40:05.827Z,21.62
2023-03-08T05:41:09.965Z,21.6
2023-03-08T05:42:14.099Z,21.56
2023-03-08T05:43:18.197Z,21.58
2023-03-08T05:44:22.321Z,21.58
2023-03-08T05:45:26.578Z,21.57
2023-03-08T05:46:31.836Z,21.55
2023-03-08T05:47:36.398Z,21.53
2023-03-08T05:48:40.500Z,21.52
2023-03-08T05:49:44.612Z,21.52
2023-03-08T05:50:48.717Z,21.46
2023-03-08T05:51:52.824Z,21.5
2023-03-08T05:52:56.956Z,21.49
2023-03-08T05:54:01.103Z,21.47
2023-03-08T05:55:05.209Z,21.43
2023-03-08T05:56:09.346Z,21.46
2023-03-08T05:57:13.484Z,21.4
2023-03-08T05:58:17.571Z,21.44
2023-03-08T05:59:21.685Z,21.43
2023-03-08T06:00:25.800Z,21.42
2023-03-08T06:01:29.949Z,21.37
2023-03-08T06:02:34.066Z,21.41
2023-03-08T06:03:38.253Z,21.4
2023-03-08T06:04:42.533Z,21.39
2023-03-08T06:05:46.669Z,21.38
2023-03-08T06:06:50.790Z,21.32
2023-03-08T06:07:54.883Z,21.32
2023-03-08T06:08:58.980Z,21.36
2023-03-08T06:10:03.080Z,21.3
2023-03-08T06:11:07.192Z,21.34
2023-03-08T06:12:11.358Z,21.35
2023-03-08T06:13:15.458Z,21.28
2023-03-08T06:14:19.564Z,21.32
2023-03-08T06:15:23.679Z,21.31
2023-03-08T06:16:27.802Z,21.26
2023-03-08T06:17:32.005Z,21.3
2023-03-08T06:18:36.122Z,21.24
2023-03-08T06:19:40.248Z,21.29
2023-03-08T06:20:44.367Z,21.29
2023-03-08T06:21:48.487Z,21.28
2023-03-08T06:22:52.601Z,21.23
2023-03-08T06:23:56.900Z,21.22
2023-03-08T06:25:01.004Z,21.26
2023-03-08T06:26:05.112Z,21.25
2023-03-08T06:27:09.235Z,21.24
2023-03-08T06:28:13.395Z,21.25
2023-03-08T06:29:17.949Z,21.24
2023-03-08T06:30:22.068Z,21.18
2023-03-08T06:31:26.334Z,21.22
2023-03-08T06:32:30.493Z,21.2
2023-03-08T06:33:34.790Z,21.16
2023-03-08T06:34:39.097Z,21.16
2023-03-08T06:35:43.228Z,21.19
2023-03-08T06:36:47.424Z,21.19
2023-03-08T06:37:51.544Z,21.18
2023-03-08T06:38:55.637Z,21.17
2023-03-08T06:39:59.747Z,21.12
2023-03-08T06:41:03.877Z,21.18
2023-03-08T06:42:07.991Z,21.17
2023-03-08T06:43:12.101Z,21.17
2023-03-08T06:44:16.220Z,21.17
2023-03-08T06:45:20.346Z,21.12
2023-03-08T06:46:24.586Z,21.12
2023-03-08T06:47:28.930Z,21.16
2023-03-08T06:48:33.059Z,21.16
2023-03-08T06:49:37.209Z,21.16
2023-03-08T06:50:41.322Z,21.16
2023-03-08T06:51:45.436Z,21.15
2023-03-08T06:52:49.540Z,21.11
2023-03-08T06:53:53.727Z,21.16
2023-03-08T06:54:57.850Z,21.15
2023-03-08T06:56:01.964Z,21.14
2023-03-08T06:57:06.820Z,21.14
2023-03-08T06:58:10.955Z,21.13
2023-03-08T06:59:15.063Z,21.13
2023-03-08T07:00:19.231Z,21.12
2023-03-08T07:01:23.426Z,21.13
2023-03-08T07:02:27.680Z,21.13
2023-03-08T07:03:31.792Z,21.13
2023-03-08T07:04:35.980Z,21.12
2023-03-08T07:05:40.262Z,21.12
2023-03-08T07:06:44.427Z,21.12
2023-03-08T07:07:48.544Z,21.12
2023-03-08T07:08:52.677Z,21.12
2023-03-08T07:09:56.793Z,21.11
2023-03-08T07:11:00.933Z,21.11
2023-03-08T07:12:05.759Z,21.1
2023-03-08T07:13:11.435Z,21.1
2023-03-08T07:14:15.566Z,21.1
2023-03-08T07:15:19.672Z,21.09
2023-03-08T07:16:23.781Z,21.09
2023-03-08T07:17:27.904Z,21.09
2023-03-08T07:18:32.013Z,21.04
2023-03-08T07:19:36.130Z,21.03
2023-03-08T07:20:40.264Z,21.03
2023-03-08T07:21:44.395Z,21.07
2023-03-08T07:22:48.530Z,21.02
2023-03-08T07:23:52.613Z,21.05
2023-03-08T07:24:56.722Z,21.05
2023-03-08T07:26:00.825Z,21.04
2023-03-08T07:27:04.981Z,21.03
2023-03-08T07:28:09.119Z,21.04
2023-03-08T07:29:13.235Z,21.03
2023-03-08T07:30:17.355Z,21.02
2023-03-08T07:31:21.538Z,21.02
2023-03-08T07:32:25.758Z,21.01
2023-03-08T07:33:30.186Z,20.96
2023-03-08T07:34:34.306Z,20.94
2023-03-08T07:35:39.998Z,20.97
2023-03-08T07:36:44.429Z,20.96
2023-03-08T07:37:48.529Z,20.96
2023-03-08T07:38:52.647Z,20.97
2023-03-08T07:39:56.757Z,20.97
2023-03-08T07:41:00.867Z,21.01
2023-03-08T07:42:04.962Z,21.02
2023-03-08T07:43:09.163Z,21.02
2023-03-08T07:44:13.331Z,20.98
2023-03-08T07:45:17.416Z,21.02
2023-03-08T07:46:21.557Z,20.97
2023-03-08T07:47:25.842Z,21
2023-03-08T07:48:30.116Z,21.01
2023-03-08T07:49:34.293Z,20.96
2023-03-08T07:50:38.456Z,21.01
2023-03-08T07:51:42.557Z,21
2023-03-08T07:52:46.706Z,20.99
2023-03-08T07:53:50.820Z,20.99
2023-03-08T07:54:54.987Z,21
2023-03-08T07:55:59.086Z,21
2023-03-08T07:57:03.224Z,20.99
2023-03-08T07:58:07.324Z,21
2023-03-08T07:59:11.437Z,21
2023-03-08T08:00:15.534Z,21
2023-03-08T08:01:19.734Z,20.95
2023-03-08T08:02:23.852Z,20.99
2023-03-08T08:03:28.030Z,20.94
2023-03-08T08:04:32.548Z,20.94
2023-03-08T08:05:36.803Z,20.98
2023-03-08T08:06:41.187Z,20.92
2023-03-08T08:07:45.285Z,20.92
2023-03-08T08:08:49.429Z,20.96
2023-03-08T08:09:53.537Z,20.96
2023-03-08T08:10:57.645Z,20.96
2023-03-08T08:12:01.788Z,20.91
2023-03-08T08:13:05.901Z,20.91
2023-03-08T08:14:10.021Z,20.96
2023-03-08T08:15:14.145Z,20.96
2023-03-08T08:16:18.327Z,20.61
2023-03-08T08:17:22.600Z,20.94
2023-03-08T08:18:26.748Z,20.94
2023-03-08T08:19:30.967Z,20.93
2023-03-08T08:20:35.120Z,20.92
2023-03-08T08:21:39.229Z,20.92
2023-03-08T08:22:43.350Z,20.92
2023-03-08T08:23:47.491Z,20.92
2023-03-08T08:24:51.588Z,20.91
2023-03-08T08:25:55.712Z,20.91
2023-03-08T08:26:59.867Z,20.87
2023-03-08T08:28:04.003Z,20.92
2023-03-08T08:29:08.127Z,20.91
2023-03-08T08:30:12.258Z,20.92
2023-03-08T08:31:16.472Z,20.93
2023-03-08T08:32:20.731Z,20.93
2023-03-08T08:33:25.003Z,20.93
2023-03-08T08:34:29.154Z,20.93
2023-03-08T08:35:42.596Z,20.89
2023-03-08T08:36:47.352Z,20.93
2023-03-08T08:37:51.462Z,20.94
2023-03-08T08:38:55.566Z,20.94
2023-03-08T08:39:59.685Z,20.94
2023-03-08T08:41:03.920Z,20.94
2023-03-08T08:42:08.117Z,20.94
2023-03-08T08:43:12.210Z,20.94
2023-03-08T08:44:16.298Z,20.95
2023-03-08T08:45:20.448Z,20.91
2023-03-08T08:46:24.569Z,20.96
2023-03-08T08:47:28.765Z,20.97
2023-03-08T08:48:33.053Z,20.92
2023-03-08T08:49:37.402Z,20.96
2023-03-08T08:50:42.001Z,20.97
2023-03-08T08:51:49.746Z,20.97
2023-03-08T08:52:55.053Z,20.93
2023-03-08T08:53:59.367Z,20.93
2023-03-08T08:55:03.578Z,20.97
2023-03-08T08:56:14.303Z,20.97
2023-03-08T08:57:31.229Z,20.98
2023-03-08T08:58:35.443Z,20.98
2023-03-08T08:59:39.746Z,20.94
2023-03-08T09:00:43.899Z,20.94
2023-03-08T09:01:48.192Z,20.99
2023-03-08T09:02:52.682Z,20.95
2023-03-08T09:03:57.190Z,21
2023-03-08T09:05:01.814Z,20.96
2023-03-08T09:06:06.151Z,21
2023-03-08T09:07:10.455Z,21.01
2023-03-08T09:08:14.621Z,20.97
2023-03-08T09:09:18.799Z,21.02
2023-03-08T09:10:23.207Z,21.01
2023-03-08T09:11:27.590Z,21.02
2023-03-08T09:12:31.745Z,21.02
2023-03-08T09:13:35.857Z,21.01
2023-03-08T09:14:39.979Z,21.02
2023-03-08T09:15:44.163Z,21.02
2023-03-08T09:16:48.418Z,21.02
2023-03-08T09:17:52.976Z,20.97
2023-03-08T09:18:57.137Z,21
2023-03-08T09:20:01.297Z,21
2023-03-08T09:21:05.541Z,20.95
2023-03-08T09:22:10.512Z,20.99
2023-03-08T09:23:15.702Z,20.94
2023-03-08T09:24:20.268Z,20.98
2023-03-08T09:25:24.613Z,20.99
2023-03-08T09:26:28.821Z,20.99
2023-03-08T09:27:33.071Z,20.99
2023-03-08T09:28:39.819Z,20.95
2023-03-08T09:29:43.938Z,20.98
2023-03-08T09:30:48.049Z,21
2023-03-08T09:31:52.173Z,21
2023-03-08T09:32:56.608Z,20.98
2023-03-08T09:34:00.837Z,20.99
2023-03-08T09:35:04.950Z,21
2023-03-08T09:36:09.087Z,21.01
2023-03-08T09:37:13.364Z,21.03
2023-03-08T09:38:17.632Z,20.75
2023-03-08T09:39:21.803Z,21.02
2023-03-08T09:40:25.941Z,21.02
2023-03-08T09:41:30.132Z,21.03
2023-03-08T09:42:34.298Z,21.03
2023-03-08T09:43:38.461Z,21.03
2023-03-08T09:44:42.580Z,20.99
2023-03-08T09:45:47.176Z,21.04
2023-03-08T09:46:51.451Z,21.04
2023-03-08T09:47:55.584Z,21.04
2023-03-08T09:48:59.871Z,21.03
2023-03-08T09:50:04.084Z,21.02
2023-03-08T09:51:08.189Z,21.06
2023-03-08T09:52:12.302Z,21.07
2023-03-08T09:53:16.424Z,21.07
2023-03-08T09:54:20.558Z,21.07
2023-03-08T09:55:24.712Z,21.08
2023-03-08T09:56:29.016Z,21.03
2023-03-08T09:57:33.180Z,21.04
2023-03-08T09:58:37.835Z,21.08
2023-03-08T09:59:50.406Z,21.09
2023-03-08T10:00:54.592Z,21.09
2023-03-08T10:01:58.864Z,21.08
2023-03-08T10:03:03.071Z,21.07
2023-03-08T10:04:07.474Z,21.02
2023-03-08T10:05:13.539Z,21.01
2023-03-08T10:06:18.018Z,21.05
2023-03-08T10:07:22.324Z,21.01
2023-03-08T10:08:26.437Z,21.06
2023-03-08T10:09:30.583Z,21.07
2023-03-08T10:10:34.705Z,21.07
2023-03-08T10:11:38.856Z,21.07
2023-03-08T10:12:43.106Z,21.03
2023-03-08T10:13:47.275Z,21.08
2023-03-08T10:14:51.396Z,21.07
2023-03-08T10:15:55.532Z,21.08
2023-03-08T10:16:59.685Z,21.09
2023-03-08T10:18:04.147Z,21.09
2023-03-08T10:19:08.270Z,21.1
2023-03-08T10:20:12.363Z,21.1
2023-03-08T10:21:16.477Z,21.06
2023-03-08T10:22:20.640Z,21.07
2023-03-08T10:23:24.789Z,21.12
2023-03-08T10:24:28.908Z,21.12
2023-03-08T10:25:33.038Z,21.11
2023-03-08T10:26:37.283Z,21.11
2023-03-08T10:27:41.411Z,21.12
2023-03-08T10:28:45.557Z,21.13
2023-03-08T10:29:49.696Z,21.14
2023-03-08T10:30:53.856Z,21.14
2023-03-08T10:31:58.094Z,21.08
2023-03-08T10:33:02.213Z,21.12
2023-03-08T10:34:06.338Z,21.11
2023-03-08T10:35:10.461Z,21.1
2023-03-08T10:36:14.608Z,21.09
2023-03-08T10:37:18.724Z,21.1
2023-03-08T10:38:22.898Z,21.11
2023-03-08T10:39:27.018Z,21.12
2023-03-08T10:40:31.296Z,21.14
2023-03-08T10:41:35.397Z,21.16
2023-03-08T10:42:39.522Z,21.17
2023-03-08T10:43:43.677Z,21.19
2023-03-08T10:44:47.827Z,21.22
2023-03-08T10:45:51.996Z,21.25
2023-03-08T10:46:56.232Z,21.26
2023-03-08T10:48:00.338Z,21.27
2023-03-08T10:49:04.475Z,21.3
2023-03-08T10:50:08.603Z,21.31
2023-03-08T10:51:12.725Z,21.28
2023-03-08T10:52:16.893Z,21.35
2023-03-08T10:53:21.252Z,21.34
2023-03-08T10:54:25.398Z,21.4
2023-03-08T10:55:29.540Z,21.38
2023-03-08T10:56:33.716Z,21.39
2023-03-08T10:57:38.004Z,21.38
2023-03-08T10:58:42.133Z,21.36
2023-03-08T10:59:46.319Z,21.39
2023-03-08T11:00:50.442Z,21.39
2023-03-08T11:01:54.547Z,21.39
2023-03-08T11:02:58.689Z,21.35
2023-03-08T11:04:02.787Z,21.4
2023-03-08T11:05:06.922Z,21.41
2023-03-08T11:06:12.264Z,21.4
2023-03-08T11:07:16.443Z,21.43
2023-03-08T11:08:20.566Z,21.38
2023-03-08T11:09:24.675Z,21.41
2023-03-08T11:10:28.861Z,21.41
2023-03-08T11:11:33.197Z,21.41
2023-03-08T11:12:37.384Z,21.4
2023-03-08T11:13:42.071Z,21.38
2023-03-08T11:14:46.270Z,21.38
2023-03-08T11:15:50.481Z,21.37
2023-03-08T11:16:54.761Z,21.37
2023-03-08T11:17:58.881Z,21.37
2023-03-08T11:19:03.112Z,21.34
2023-03-08T11:20:07.439Z,21.36
2023-03-08T11:21:11.560Z,21.37
2023-03-08T11:22:15.707Z,21.39
2023-03-08T11:23:19.852Z,21.34
2023-03-08T11:24:24.031Z,21.46
2023-03-08T11:25:28.348Z,21.49
2023-03-08T11:26:32.571Z,21.52
2023-03-08T11:27:36.721Z,21.52
2023-03-08T11:28:40.978Z,21.51
2023-03-08T11:29:45.209Z,21.51
2023-03-08T11:30:49.439Z,21.54
2023-03-08T11:31:53.703Z,21.53
2023-03-08T11:32:57.990Z,21.52
2023-03-08T11:34:03.064Z,21.53
2023-03-08T11:35:07.342Z,21.48
2023-03-08T11:36:13.072Z,21.49
2023-03-08T11:37:17.318Z,21.48
2023-03-08T11:38:21.444Z,21.43
2023-03-08T11:39:25.599Z,21.47
2023-03-08T11:40:29.716Z,21.46
2023-03-08T11:41:33.818Z,21.45
2023-03-08T11:42:37.944Z,21.45
2023-03-08T11:43:42.052Z,21.4
2023-03-08T11:44:46.185Z,21.42
2023-03-08T11:45:50.309Z,21.48
2023-03-08T11:46:54.454Z,21.5
2023-03-08T11:47:58.856Z,21.49
2023-03-08T11:49:03.371Z,21.56
2023-03-08T11:50:07.775Z,21.58
2023-03-08T11:51:11.926Z,21.55
2023-03-08T11:52:16.106Z,21.49
2023-03-08T11:53:20.377Z,21.58
2023-03-08T11:54:24.632Z,21.58
2023-03-08T11:55:28.832Z,21.58
2023-03-08T11:56:33.265Z,21.59
2023-03-08T11:57:37.514Z,21.6
2023-03-08T11:58:41.643Z,21.58
2023-03-08T11:59:45.755Z,21.54
2023-03-08T12:00:49.893Z,21.57
2023-03-08T12:01:54.022Z,21.55
2023-03-08T12:02:58.159Z,21.53
2023-03-08T12:04:04.205Z,21.53
2023-03-08T12:05:08.963Z,21.54
2023-03-08T12:06:23.011Z,21.5
2023-03-08T12:07:35.627Z,21.5
2023-03-08T12:08:39.796Z,21.52
2023-03-08T12:09:43.941Z,21.5
2023-03-08T12:10:48.222Z,21.55
2023-03-08T12:11:52.356Z,21.57
2023-03-08T12:12:56.491Z,21.59
2023-03-08T12:14:00.616Z,21.55
2023-03-08T12:15:04.997Z,21.59
2023-03-08T12:16:09.422Z,21.59
2023-03-08T12:17:13.964Z,21.54
2023-03-08T12:18:18.742Z,21.57
2023-03-08T12:19:22.989Z,21.57
2023-03-08T12:20:27.148Z,21.57
2023-03-08T12:21:31.632Z,21.56
2023-03-08T12:22:36.085Z,21.58
2023-03-08T12:23:40.392Z,21.57
2023-03-08T12:24:44.600Z,21.57
2023-03-08T12:25:48.801Z,21.56
2023-03-08T12:26:53.186Z,21.5
2023-03-08T12:27:57.987Z,21.57
2023-03-08T12:29:02.699Z,21.61
2023-03-08T12:37:47.550Z,21.78
2023-03-08T12:38:51.945Z,21.79
2023-03-08T12:39:56.245Z,21.81
2023-03-08T12:41:00.529Z,21.81
2023-03-08T12:42:04.765Z,21.76
2023-03-08T12:43:09.069Z,21.8
2023-03-08T12:44:13.318Z,21.8
2023-03-08T12:45:17.491Z,21.76
2023-03-08T12:46:21.690Z,21.81
2023-03-08T12:47:25.940Z,21.79
2023-03-08T12:48:30.205Z,21.74
2023-03-08T12:49:34.545Z,21.79
2023-03-08T12:50:38.970Z,21.77
2023-03-08T12:51:43.283Z,21.76
2023-03-08T12:52:47.548Z,21.77
2023-03-08T12:53:51.793Z,21.77
2023-03-08T12:54:55.933Z,21.78
2023-03-08T12:56:00.088Z,21.8
2023-03-08T12:57:04.220Z,21.82
2023-03-08T12:58:08.358Z,21.79
2023-03-08T12:59:12.461Z,21.85
2023-03-08T13:00:16.586Z,21.87
2023-03-08T13:01:20.804Z,21.82
2023-03-08T13:02:25.079Z,21.86
2023-03-08T13:03:29.195Z,21.86
2023-03-08T13:04:40.788Z,21.8
2023-03-08T13:05:46.125Z,21.86
2023-03-08T13:06:50.246Z,21.81
2023-03-08T13:07:54.383Z,21.8
2023-03-08T13:08:58.591Z,21.84
2023-03-08T13:10:02.753Z,21.84
2023-03-08T13:11:06.937Z,21.84
2023-03-08T13:12:15.227Z,21.84
